sensor_id;sensor_type;location;lat;lon;timestamp;temperature;humidity
17619;DHT22;8928;51.678;6.074;2023-09-19T00:01:45;14.10;99.90
17619;DHT22;8928;51.678;6.074;2023-09-19T00:04:34;14.00;99.90
17619;DHT22;8928;51.678;6.074;2023-09-19T00:07:21;14.10;99.90
17619;DHT22;8928;51.678;6.074;2023-09-19T00:10:08;14.10;99.90
17619;DHT22;8928;51.678;6.074;2023-09-19T00:12:57;14.10;99.90
17619;DHT22;8928;51.678;6.074;2023-09-19T00:15:47;14.10;99.90
17619;DHT22;8928;51.678;6.074;2023-09-19T00:18:35;14.00;99.90
17619;DHT22;8928;51.678;6.074;2023-09-19T00:21:23;14.00;99.90
17619;DHT22;8928;51.678;6.074;2023-09-19T00:24:10;14.10;99.90
17619;DHT22;8928;51.678;6.074;2023-09-19T00:26:57;14.10;99.90
17619;DHT22;8928;51.678;6.074;2023-09-19T00:29:45;14.10;99.90
17619;DHT22;8928;51.678;6.074;2023-09-19T00:32:32;14.10;99.90
17619;DHT22;8928;51.678;6.074;2023-09-19T00:35:19;14.10;99.90
17619;DHT22;8928;51.678;6.074;2023-09-19T00:38:07;14.00;99.90
17619;DHT22;8928;51.678;6.074;2023-09-19T00:40:55;14.00;99.90
17619;DHT22;8928;51.678;6.074;2023-09-19T00:43:42;13.90;99.90
17619;DHT22;8928;51.678;6.074;2023-09-19T00:46:30;13.80;99.90
17619;DHT22;8928;51.678;6.074;2023-09-19T00:49:18;13.70;99.90
17619;DHT22;8928;51.678;6.074;2023-09-19T00:52:08;13.70;99.90
17619;DHT22;8928;51.678;6.074;2023-09-19T00:54:57;13.60;99.90
17619;DHT22;8928;51.678;6.074;2023-09-19T00:57:46;13.50;99.90
17619;DHT22;8928;51.678;6.074;2023-09-19T01:00:35;13.50;99.90
17619;DHT22;8928;51.678;6.074;2023-09-19T01:03:23;13.50;99.90
17619;DHT22;8928;51.678;6.074;2023-09-19T01:06:10;13.40;99.90
17619;DHT22;8928;51.678;6.074;2023-09-19T01:08:58;13.50;99.90
17619;DHT22;8928;51.678;6.074;2023-09-19T01:11:48;13.50;99.90
17619;DHT22;8928;51.678;6.074;2023-09-19T01:14:42;13.50;99.90
17619;DHT22;8928;51.678;6.074;2023-09-19T01:17:38;13.50;99.90
17619;DHT22;8928;51.678;6.074;2023-09-19T01:20:37;13.50;99.90
17619;DHT22;8928;51.678;6.074;2023-09-19T01:23:37;13.50;99.90
17619;DHT22;8928;51.678;6.074;2023-09-19T01:26:41;13.50;99.90
17619;DHT22;8928;51.678;6.074;2023-09-19T01:29:38;13.50;99.90
17619;DHT22;8928;51.678;6.074;2023-09-19T01:32:27;13.50;99.90
17619;DHT22;8928;51.678;6.074;2023-09-19T01:35:15;13.60;99.90
17619;DHT22;8928;51.678;6.074;2023-09-19T01:38:04;13.60;99.90
17619;DHT22;8928;51.678;6.074;2023-09-19T01:40:57;13.60;99.90
17619;DHT22;8928;51.678;6.074;2023-09-19T01:43:49;13.60;99.90
17619;DHT22;8928;51.678;6.074;2023-09-19T01:46:39;13.60;99.90
17619;DHT22;8928;51.678;6.074;2023-09-19T01:49:35;13.60;99.90
17619;DHT22;8928;51.678;6.074;2023-09-19T01:52:28;13.60;99.90
17619;DHT22;8928;51.678;6.074;2023-09-19T01:55:17;13.60;99.90
17619;DHT22;8928;51.678;6.074;2023-09-19T01:58:08;13.60;99.90
17619;DHT22;8928;51.678;6.074;2023-09-19T02:00:57;13.60;99.90
17619;DHT22;8928;51.678;6.074;2023-09-19T02:03:46;13.60;99.90
17619;DHT22;8928;51.678;6.074;2023-09-19T02:06:35;13.50;99.90
17619;DHT22;8928;51.678;6.074;2023-09-19T02:09:24;13.50;99.90
17619;DHT22;8928;51.678;6.074;2023-09-19T02:12:11;13.50;99.90
17619;DHT22;8928;51.678;6.074;2023-09-19T02:14:59;13.50;99.90
17619;DHT22;8928;51.678;6.074;2023-09-19T02:17:46;13.40;99.90
17619;DHT22;8928;51.678;6.074;2023-09-19T02:20:33;13.40;99.90
17619;DHT22;8928;51.678;6.074;2023-09-19T02:23:21;13.40;99.90
17619;DHT22;8928;51.678;6.074;2023-09-19T02:26:08;13.30;99.90
17619;DHT22;8928;51.678;6.074;2023-09-19T02:28:57;13.30;99.90
17619;DHT22;8928;51.678;6.074;2023-09-19T02:31:45;13.20;99.90
17619;DHT22;8928;51.678;6.074;2023-09-19T02:34:32;13.30;99.90
17619;DHT22;8928;51.678;6.074;2023-09-19T02:37:22;13.30;99.90
17619;DHT22;8928;51.678;6.074;2023-09-19T02:40:11;13.30;99.90
17619;DHT22;8928;51.678;6.074;2023-09-19T02:43:05;13.30;99.90
17619;DHT22;8928;51.678;6.074;2023-09-19T02:45:53;13.20;99.90
17619;DHT22;8928;51.678;6.074;2023-09-19T02:48:40;13.10;99.90
17619;DHT22;8928;51.678;6.074;2023-09-19T02:51:27;13.10;99.90
17619;DHT22;8928;51.678;6.074;2023-09-19T02:54:15;13.10;99.90
17619;DHT22;8928;51.678;6.074;2023-09-19T02:57:04;13.00;99.90
17619;DHT22;8928;51.678;6.074;2023-09-19T02:59:53;13.00;99.90
17619;DHT22;8928;51.678;6.074;2023-09-19T03:02:40;12.90;99.90
17619;DHT22;8928;51.678;6.074;2023-09-19T03:05:28;12.80;99.90
17619;DHT22;8928;51.678;6.074;2023-09-19T03:08:16;12.70;99.90
17619;DHT22;8928;51.678;6.074;2023-09-19T03:11:03;12.60;99.90
17619;DHT22;8928;51.678;6.074;2023-09-19T03:13:53;12.60;99.90
17619;DHT22;8928;51.678;6.074;2023-09-19T03:16:40;12.50;99.90
17619;DHT22;8928;51.678;6.074;2023-09-19T03:19:30;12.60;99.90
17619;DHT22;8928;51.678;6.074;2023-09-19T03:22:19;12.50;99.90
17619;DHT22;8928;51.678;6.074;2023-09-19T03:25:07;12.50;99.90
17619;DHT22;8928;51.678;6.074;2023-09-19T03:27:56;12.50;99.90
17619;DHT22;8928;51.678;6.074;2023-09-19T03:30:45;12.40;99.90
17619;DHT22;8928;51.678;6.074;2023-09-19T03:33:32;12.40;99.90
17619;DHT22;8928;51.678;6.074;2023-09-19T03:36:19;12.40;99.90
17619;DHT22;8928;51.678;6.074;2023-09-19T03:39:07;12.40;99.90
17619;DHT22;8928;51.678;6.074;2023-09-19T03:41:54;12.40;99.90
17619;DHT22;8928;51.678;6.074;2023-09-19T03:44:41;12.30;99.90
17619;DHT22;8928;51.678;6.074;2023-09-19T03:47:29;12.30;99.90
17619;DHT22;8928;51.678;6.074;2023-09-19T03:50:16;12.40;99.90
17619;DHT22;8928;51.678;6.074;2023-09-19T03:53:03;12.40;99.90
17619;DHT22;8928;51.678;6.074;2023-09-19T03:55:52;12.30;99.90
17619;DHT22;8928;51.678;6.074;2023-09-19T03:58:39;12.30;99.90
17619;DHT22;8928;51.678;6.074;2023-09-19T04:01:26;12.30;99.90
17619;DHT22;8928;51.678;6.074;2023-09-19T04:04:17;12.20;99.90
17619;DHT22;8928;51.678;6.074;2023-09-19T04:07:05;12.20;99.90
17619;DHT22;8928;51.678;6.074;2023-09-19T04:09:52;12.20;99.90
17619;DHT22;8928;51.678;6.074;2023-09-19T04:12:39;12.10;99.90
17619;DHT22;8928;51.678;6.074;2023-09-19T04:15:26;12.10;99.90
17619;DHT22;8928;51.678;6.074;2023-09-19T04:18:13;12.10;99.90
17619;DHT22;8928;51.678;6.074;2023-09-19T04:21:02;12.10;99.90
17619;DHT22;8928;51.678;6.074;2023-09-19T04:23:50;12.10;99.90
17619;DHT22;8928;51.678;6.074;2023-09-19T04:26:37;12.10;99.90
17619;DHT22;8928;51.678;6.074;2023-09-19T04:29:24;12.10;99.90
17619;DHT22;8928;51.678;6.074;2023-09-19T04:32:12;12.10;99.90
17619;DHT22;8928;51.678;6.074;2023-09-19T04:34:59;12.10;99.90
17619;DHT22;8928;51.678;6.074;2023-09-19T04:37:50;12.10;99.90
17619;DHT22;8928;51.678;6.074;2023-09-19T04:40:38;12.00;99.90
17619;DHT22;8928;51.678;6.074;2023-09-19T04:43:26;11.90;99.90
17619;DHT22;8928;51.678;6.074;2023-09-19T04:46:14;11.90;99.90
17619;DHT22;8928;51.678;6.074;2023-09-19T04:49:03;11.80;99.90
17619;DHT22;8928;51.678;6.074;2023-09-19T04:51:50;11.80;99.90
17619;DHT22;8928;51.678;6.074;2023-09-19T04:54:38;11.80;99.90
17619;DHT22;8928;51.678;6.074;2023-09-19T04:57:27;11.70;99.90
17619;DHT22;8928;51.678;6.074;2023-09-19T05:00:16;11.80;99.90
17619;DHT22;8928;51.678;6.074;2023-09-19T05:03:05;11.80;99.90
17619;DHT22;8928;51.678;6.074;2023-09-19T05:05:54;11.80;99.90
17619;DHT22;8928;51.678;6.074;2023-09-19T05:08:41;11.80;99.90
17619;DHT22;8928;51.678;6.074;2023-09-19T05:11:30;11.80;99.90
17619;DHT22;8928;51.678;6.074;2023-09-19T05:14:17;11.90;99.90
17619;DHT22;8928;51.678;6.074;2023-09-19T05:17:04;12.00;99.90
17619;DHT22;8928;51.678;6.074;2023-09-19T05:19:51;12.10;99.90
17619;DHT22;8928;51.678;6.074;2023-09-19T05:22:38;12.10;99.90
17619;DHT22;8928;51.678;6.074;2023-09-19T05:25:26;12.20;99.90
17619;DHT22;8928;51.678;6.074;2023-09-19T05:28:16;12.30;99.90
17619;DHT22;8928;51.678;6.074;2023-09-19T05:31:03;12.30;99.90
17619;DHT22;8928;51.678;6.074;2023-09-19T05:33:50;12.40;99.90
17619;DHT22;8928;51.678;6.074;2023-09-19T05:36:38;12.50;99.90
17619;DHT22;8928;51.678;6.074;2023-09-19T05:39:26;12.50;99.90
17619;DHT22;8928;51.678;6.074;2023-09-19T05:42:13;12.50;99.90
17619;DHT22;8928;51.678;6.074;2023-09-19T05:45:01;12.50;99.90
17619;DHT22;8928;51.678;6.074;2023-09-19T05:47:49;12.60;99.90
17619;DHT22;8928;51.678;6.074;2023-09-19T05:50:37;12.60;99.90
17619;DHT22;8928;51.678;6.074;2023-09-19T05:53:24;12.70;99.90
17619;DHT22;8928;51.678;6.074;2023-09-19T05:56:11;12.70;99.90
17619;DHT22;8928;51.678;6.074;2023-09-19T05:58:59;12.80;99.90
17619;DHT22;8928;51.678;6.074;2023-09-19T06:01:47;12.80;99.90
17619;DHT22;8928;51.678;6.074;2023-09-19T06:04:35;12.80;99.90
17619;DHT22;8928;51.678;6.074;2023-09-19T06:07:22;12.80;99.90
17619;DHT22;8928;51.678;6.074;2023-09-19T06:10:11;12.90;99.90
17619;DHT22;8928;51.678;6.074;2023-09-19T06:12:59;13.00;99.90
17619;DHT22;8928;51.678;6.074;2023-09-19T06:15:46;13.00;99.90
17619;DHT22;8928;51.678;6.074;2023-09-19T06:18:34;13.10;99.90
17619;DHT22;8928;51.678;6.074;2023-09-19T06:21:22;13.20;99.90
17619;DHT22;8928;51.678;6.074;2023-09-19T06:24:09;13.20;99.90
17619;DHT22;8928;51.678;6.074;2023-09-19T06:26:57;13.20;99.90
17619;DHT22;8928;51.678;6.074;2023-09-19T06:29:47;13.30;99.90
17619;DHT22;8928;51.678;6.074;2023-09-19T06:32:34;13.40;99.90
17619;DHT22;8928;51.678;6.074;2023-09-19T06:35:23;13.50;99.90
17619;DHT22;8928;51.678;6.074;2023-09-19T06:38:11;13.50;99.90
17619;DHT22;8928;51.678;6.074;2023-09-19T06:40:59;13.60;99.90
17619;DHT22;8928;51.678;6.074;2023-09-19T06:43:47;13.60;99.90
17619;DHT22;8928;51.678;6.074;2023-09-19T06:46:34;13.70;99.90
17619;DHT22;8928;51.678;6.074;2023-09-19T06:49:21;13.70;99.90
17619;DHT22;8928;51.678;6.074;2023-09-19T06:52:10;13.80;99.90
17619;DHT22;8928;51.678;6.074;2023-09-19T06:54:57;13.90;99.90
17619;DHT22;8928;51.678;6.074;2023-09-19T06:57:44;14.00;99.90
17619;DHT22;8928;51.678;6.074;2023-09-19T07:00:31;14.10;99.90
17619;DHT22;8928;51.678;6.074;2023-09-19T07:03:21;14.20;99.90
17619;DHT22;8928;51.678;6.074;2023-09-19T07:06:11;14.20;99.90
17619;DHT22;8928;51.678;6.074;2023-09-19T07:09:00;14.30;99.90
17619;DHT22;8928;51.678;6.074;2023-09-19T07:11:47;14.40;99.90
17619;DHT22;8928;51.678;6.074;2023-09-19T07:14:36;14.50;99.90
17619;DHT22;8928;51.678;6.074;2023-09-19T07:17:23;14.50;99.90
17619;DHT22;8928;51.678;6.074;2023-09-19T07:20:10;14.50;99.90
17619;DHT22;8928;51.678;6.074;2023-09-19T07:23:02;14.60;99.90
17619;DHT22;8928;51.678;6.074;2023-09-19T07:25:51;14.60;99.90
17619;DHT22;8928;51.678;6.074;2023-09-19T07:28:38;14.60;99.90
17619;DHT22;8928;51.678;6.074;2023-09-19T07:31:25;14.70;99.90
17619;DHT22;8928;51.678;6.074;2023-09-19T07:34:13;14.70;99.90
17619;DHT22;8928;51.678;6.074;2023-09-19T07:37:01;14.80;99.90
17619;DHT22;8928;51.678;6.074;2023-09-19T07:39:49;14.80;99.90
17619;DHT22;8928;51.678;6.074;2023-09-19T07:42:38;14.90;99.90
17619;DHT22;8928;51.678;6.074;2023-09-19T07:45:26;14.90;99.90
17619;DHT22;8928;51.678;6.074;2023-09-19T07:48:13;14.90;99.90
17619;DHT22;8928;51.678;6.074;2023-09-19T07:51:04;14.90;99.90
17619;DHT22;8928;51.678;6.074;2023-09-19T07:53:51;15.00;99.90
17619;DHT22;8928;51.678;6.074;2023-09-19T07:56:40;15.00;99.90
17619;DHT22;8928;51.678;6.074;2023-09-19T07:59:28;15.10;99.90
17619;DHT22;8928;51.678;6.074;2023-09-19T08:02:15;15.10;99.90
17619;DHT22;8928;51.678;6.074;2023-09-19T08:05:04;15.20;99.90
17619;DHT22;8928;51.678;6.074;2023-09-19T08:07:55;15.30;99.90
17619;DHT22;8928;51.678;6.074;2023-09-19T08:10:43;15.50;99.90
17619;DHT22;8928;51.678;6.074;2023-09-19T08:13:34;15.60;99.90
17619;DHT22;8928;51.678;6.074;2023-09-19T08:16:23;15.70;99.90
17619;DHT22;8928;51.678;6.074;2023-09-19T08:19:10;15.80;99.90
17619;DHT22;8928;51.678;6.074;2023-09-19T08:21:58;16.00;99.90
17619;DHT22;8928;51.678;6.074;2023-09-19T08:24:45;16.20;99.90
17619;DHT22;8928;51.678;6.074;2023-09-19T08:27:33;16.30;99.90
17619;DHT22;8928;51.678;6.074;2023-09-19T08:30:22;16.40;99.90
17619;DHT22;8928;51.678;6.074;2023-09-19T08:33:11;16.50;99.90
17619;DHT22;8928;51.678;6.074;2023-09-19T08:36:00;16.60;99.90
17619;DHT22;8928;51.678;6.074;2023-09-19T08:38:50;16.60;99.90
17619;DHT22;8928;51.678;6.074;2023-09-19T08:41:37;16.60;99.90
17619;DHT22;8928;51.678;6.074;2023-09-19T08:44:24;16.70;99.90
17619;DHT22;8928;51.678;6.074;2023-09-19T08:47:14;16.70;99.90
17619;DHT22;8928;51.678;6.074;2023-09-19T08:50:10;16.80;99.90
17619;DHT22;8928;51.678;6.074;2023-09-19T08:53:01;16.90;99.90
17619;DHT22;8928;51.678;6.074;2023-09-19T08:55:49;17.10;99.90
17619;DHT22;8928;51.678;6.074;2023-09-19T08:58:44;17.20;99.90
17619;DHT22;8928;51.678;6.074;2023-09-19T09:01:33;17.10;99.90
17619;DHT22;8928;51.678;6.074;2023-09-19T09:04:22;17.20;99.90
17619;DHT22;8928;51.678;6.074;2023-09-19T09:07:12;17.40;99.90
17619;DHT22;8928;51.678;6.074;2023-09-19T09:09:59;17.30;99.90
17619;DHT22;8928;51.678;6.074;2023-09-19T09:12:46;17.50;99.90
17619;DHT22;8928;51.678;6.074;2023-09-19T09:15:35;17.50;99.90
17619;DHT22;8928;51.678;6.074;2023-09-19T09:18:23;17.50;99.90
17619;DHT22;8928;51.678;6.074;2023-09-19T09:21:10;17.70;99.90
17619;DHT22;8928;51.678;6.074;2023-09-19T09:23:58;17.80;99.90
17619;DHT22;8928;51.678;6.074;2023-09-19T09:26:45;17.70;99.90
17619;DHT22;8928;51.678;6.074;2023-09-19T09:29:42;17.80;99.90
17619;DHT22;8928;51.678;6.074;2023-09-19T09:32:31;17.80;99.90
17619;DHT22;8928;51.678;6.074;2023-09-19T09:35:20;18.00;99.90
17619;DHT22;8928;51.678;6.074;2023-09-19T09:38:07;18.10;99.90
17619;DHT22;8928;51.678;6.074;2023-09-19T09:40:57;18.50;99.90
17619;DHT22;8928;51.678;6.074;2023-09-19T09:43:52;18.90;99.90
17619;DHT22;8928;51.678;6.074;2023-09-19T09:46:42;19.30;99.90
17619;DHT22;8928;51.678;6.074;2023-09-19T09:49:55;19.50;99.90
17619;DHT22;8928;51.678;6.074;2023-09-19T09:52:52;19.70;99.90
17619;DHT22;8928;51.678;6.074;2023-09-19T09:55:58;19.40;99.90
17619;DHT22;8928;51.678;6.074;2023-09-19T09:58:50;19.40;99.90
17619;DHT22;8928;51.678;6.074;2023-09-19T10:01:47;19.50;99.90
17619;DHT22;8928;51.678;6.074;2023-09-19T10:04:35;19.60;99.90
17619;DHT22;8928;51.678;6.074;2023-09-19T10:07:31;19.70;99.90
17619;DHT22;8928;51.678;6.074;2023-09-19T10:10:30;19.80;99.90
17619;DHT22;8928;51.678;6.074;2023-09-19T10:13:29;20.10;99.90
17619;DHT22;8928;51.678;6.074;2023-09-19T10:16:16;20.40;99.90
17619;DHT22;8928;51.678;6.074;2023-09-19T10:19:07;20.60;99.90
17619;DHT22;8928;51.678;6.074;2023-09-19T10:21:55;20.80;99.90
17619;DHT22;8928;51.678;6.074;2023-09-19T10:24:43;20.70;99.90
17619;DHT22;8928;51.678;6.074;2023-09-19T10:27:32;20.90;99.90
17619;DHT22;8928;51.678;6.074;2023-09-19T10:30:25;20.90;99.90
17619;DHT22;8928;51.678;6.074;2023-09-19T10:33:17;20.90;99.90
17619;DHT22;8928;51.678;6.074;2023-09-19T10:36:07;20.90;99.90
17619;DHT22;8928;51.678;6.074;2023-09-19T10:38:56;20.70;99.90
17619;DHT22;8928;51.678;6.074;2023-09-19T10:41:51;20.50;99.90
17619;DHT22;8928;51.678;6.074;2023-09-19T10:44:45;20.40;99.90
17619;DHT22;8928;51.678;6.074;2023-09-19T10:47:36;20.70;99.90
17619;DHT22;8928;51.678;6.074;2023-09-19T10:50:23;20.90;99.90
17619;DHT22;8928;51.678;6.074;2023-09-19T10:53:12;21.10;99.90
17619;DHT22;8928;51.678;6.074;2023-09-19T10:56:01;20.90;99.90
17619;DHT22;8928;51.678;6.074;2023-09-19T10:59:06;21.00;99.90
17619;DHT22;8928;51.678;6.074;2023-09-19T11:01:55;20.90;99.90
17619;DHT22;8928;51.678;6.074;2023-09-19T11:04:44;20.80;99.90
17619;DHT22;8928;51.678;6.074;2023-09-19T11:07:58;20.90;99.90
17619;DHT22;8928;51.678;6.074;2023-09-19T11:10:48;20.50;99.90
17619;DHT22;8928;51.678;6.074;2023-09-19T11:13:36;20.60;99.90
17619;DHT22;8928;51.678;6.074;2023-09-19T11:16:24;21.10;99.90
17619;DHT22;8928;51.678;6.074;2023-09-19T11:19:11;21.00;99.90
17619;DHT22;8928;51.678;6.074;2023-09-19T11:21:58;20.70;99.90
17619;DHT22;8928;51.678;6.074;2023-09-19T11:24:45;20.80;99.90
17619;DHT22;8928;51.678;6.074;2023-09-19T11:27:32;21.00;99.90
17619;DHT22;8928;51.678;6.074;2023-09-19T11:30:26;20.90;99.90
17619;DHT22;8928;51.678;6.074;2023-09-19T11:33:16;20.80;99.90
17619;DHT22;8928;51.678;6.074;2023-09-19T11:36:07;20.80;99.90
17619;DHT22;8928;51.678;6.074;2023-09-19T11:38:59;20.80;99.90
17619;DHT22;8928;51.678;6.074;2023-09-19T11:41:56;21.00;99.90
17619;DHT22;8928;51.678;6.074;2023-09-19T11:44:43;21.10;99.90
17619;DHT22;8928;51.678;6.074;2023-09-19T11:47:31;21.40;99.90
17619;DHT22;8928;51.678;6.074;2023-09-19T11:50:20;22.00;99.90
17619;DHT22;8928;51.678;6.074;2023-09-19T11:53:10;22.20;99.90
17619;DHT22;8928;51.678;6.074;2023-09-19T11:55:58;22.00;99.90
17619;DHT22;8928;51.678;6.074;2023-09-19T11:58:49;22.10;99.90
17619;DHT22;8928;51.678;6.074;2023-09-19T12:01:44;22.30;99.90
17619;DHT22;8928;51.678;6.074;2023-09-19T12:04:42;22.10;99.90
17619;DHT22;8928;51.678;6.074;2023-09-19T12:07:29;21.80;99.90
17619;DHT22;8928;51.678;6.074;2023-09-19T12:10:16;21.80;99.90
17619;DHT22;8928;51.678;6.074;2023-09-19T12:13:07;21.90;99.90
17619;DHT22;8928;51.678;6.074;2023-09-19T12:15:56;22.30;99.90
17619;DHT22;8928;51.678;6.074;2023-09-19T12:18:46;22.60;99.90
17619;DHT22;8928;51.678;6.074;2023-09-19T12:21:33;22.80;99.90
17619;DHT22;8928;51.678;6.074;2023-09-19T12:24:22;22.70;99.90
17619;DHT22;8928;51.678;6.074;2023-09-19T12:27:12;22.60;99.90
17619;DHT22;8928;51.678;6.074;2023-09-19T12:29:59;22.50;99.90
17619;DHT22;8928;51.678;6.074;2023-09-19T12:32:48;22.50;99.90
17619;DHT22;8928;51.678;6.074;2023-09-19T12:35:35;22.80;99.90
17619;DHT22;8928;51.678;6.074;2023-09-19T12:38:25;22.50;99.90
17619;DHT22;8928;51.678;6.074;2023-09-19T12:41:14;22.20;99.90
17619;DHT22;8928;51.678;6.074;2023-09-19T12:44:01;22.40;99.90
17619;DHT22;8928;51.678;6.074;2023-09-19T12:46:54;22.60;99.90
17619;DHT22;8928;51.678;6.074;2023-09-19T12:50:09;22.60;99.90
17619;DHT22;8928;51.678;6.074;2023-09-19T12:53:00;22.60;99.90
17619;DHT22;8928;51.678;6.074;2023-09-19T12:55:58;22.50;99.90
17619;DHT22;8928;51.678;6.074;2023-09-19T12:58:49;22.30;99.90
17619;DHT22;8928;51.678;6.074;2023-09-19T13:01:36;22.30;99.90
17619;DHT22;8928;51.678;6.074;2023-09-19T13:04:28;22.20;99.90
17619;DHT22;8928;51.678;6.074;2023-09-19T13:07:41;21.80;99.90
17619;DHT22;8928;51.678;6.074;2023-09-19T13:10:31;21.40;99.90
17619;DHT22;8928;51.678;6.074;2023-09-19T13:13:24;20.90;99.90
17619;DHT22;8928;51.678;6.074;2023-09-19T13:16:15;20.70;99.90
17619;DHT22;8928;51.678;6.074;2023-09-19T13:19:05;20.70;99.90
17619;DHT22;8928;51.678;6.074;2023-09-19T13:21:52;20.60;99.90
17619;DHT22;8928;51.678;6.074;2023-09-19T13:24:42;20.50;99.90
17619;DHT22;8928;51.678;6.074;2023-09-19T13:27:30;20.40;99.90
17619;DHT22;8928;51.678;6.074;2023-09-19T13:30:17;20.60;99.90
17619;DHT22;8928;51.678;6.074;2023-09-19T13:33:05;21.00;99.90
17619;DHT22;8928;51.678;6.074;2023-09-19T13:35:53;21.30;99.90
17619;DHT22;8928;51.678;6.074;2023-09-19T13:38:40;21.20;99.90
17619;DHT22;8928;51.678;6.074;2023-09-19T13:41:30;20.90;99.90
17619;DHT22;8928;51.678;6.074;2023-09-19T13:44:18;20.60;99.90
17619;DHT22;8928;51.678;6.074;2023-09-19T13:47:05;20.60;99.90
17619;DHT22;8928;51.678;6.074;2023-09-19T13:49:55;20.50;99.90
17619;DHT22;8928;51.678;6.074;2023-09-19T13:52:42;20.30;99.90
17619;DHT22;8928;51.678;6.074;2023-09-19T13:55:29;20.30;99.90
17619;DHT22;8928;51.678;6.074;2023-09-19T13:58:18;20.10;99.90
17619;DHT22;8928;51.678;6.074;2023-09-19T14:01:05;19.90;99.90
17619;DHT22;8928;51.678;6.074;2023-09-19T14:03:58;19.80;99.90
17619;DHT22;8928;51.678;6.074;2023-09-19T14:06:45;19.90;99.90
17619;DHT22;8928;51.678;6.074;2023-09-19T14:09:32;20.00;99.90
17619;DHT22;8928;51.678;6.074;2023-09-19T14:12:19;20.20;99.90
17619;DHT22;8928;51.678;6.074;2023-09-19T14:15:09;20.20;99.90
17619;DHT22;8928;51.678;6.074;2023-09-19T14:17:57;20.20;99.90
17619;DHT22;8928;51.678;6.074;2023-09-19T14:20:45;20.30;99.90
17619;DHT22;8928;51.678;6.074;2023-09-19T14:23:35;20.40;99.90
17619;DHT22;8928;51.678;6.074;2023-09-19T14:26:22;20.80;99.90
17619;DHT22;8928;51.678;6.074;2023-09-19T14:29:10;21.10;99.90
17619;DHT22;8928;51.678;6.074;2023-09-19T14:31:58;21.20;99.90
17619;DHT22;8928;51.678;6.074;2023-09-19T14:34:45;21.10;99.90
17619;DHT22;8928;51.678;6.074;2023-09-19T14:37:33;21.10;99.90
17619;DHT22;8928;51.678;6.074;2023-09-19T14:40:20;20.90;99.90
17619;DHT22;8928;51.678;6.074;2023-09-19T14:43:08;20.60;99.90
17619;DHT22;8928;51.678;6.074;2023-09-19T14:45:55;20.50;99.90
17619;DHT22;8928;51.678;6.074;2023-09-19T14:48:44;20.30;99.90
17619;DHT22;8928;51.678;6.074;2023-09-19T14:51:32;20.20;99.90
17619;DHT22;8928;51.678;6.074;2023-09-19T14:54:21;20.20;99.90
17619;DHT22;8928;51.678;6.074;2023-09-19T14:57:09;20.20;99.90
17619;DHT22;8928;51.678;6.074;2023-09-19T14:59:56;20.30;99.90
17619;DHT22;8928;51.678;6.074;2023-09-19T15:02:43;20.20;99.90
17619;DHT22;8928;51.678;6.074;2023-09-19T15:05:32;20.20;99.90
17619;DHT22;8928;51.678;6.074;2023-09-19T15:08:19;20.10;99.90
17619;DHT22;8928;51.678;6.074;2023-09-19T15:11:07;20.20;99.90
17619;DHT22;8928;51.678;6.074;2023-09-19T15:13:54;20.20;99.90
17619;DHT22;8928;51.678;6.074;2023-09-19T15:16:42;20.20;99.90
17619;DHT22;8928;51.678;6.074;2023-09-19T15:19:29;20.20;99.90
17619;DHT22;8928;51.678;6.074;2023-09-19T15:22:18;20.10;99.90
17619;DHT22;8928;51.678;6.074;2023-09-19T15:25:06;20.00;99.90
17619;DHT22;8928;51.678;6.074;2023-09-19T15:27:53;20.00;99.90
17619;DHT22;8928;51.678;6.074;2023-09-19T15:30:40;19.90;99.90
17619;DHT22;8928;51.678;6.074;2023-09-19T15:33:27;19.80;99.90
17619;DHT22;8928;51.678;6.074;2023-09-19T15:36:15;19.70;99.90
17619;DHT22;8928;51.678;6.074;2023-09-19T15:39:06;19.60;99.90
17619;DHT22;8928;51.678;6.074;2023-09-19T15:41:56;19.60;99.90
17619;DHT22;8928;51.678;6.074;2023-09-19T15:44:43;19.70;99.90
17619;DHT22;8928;51.678;6.074;2023-09-19T15:47:32;19.80;99.90
17619;DHT22;8928;51.678;6.074;2023-09-19T15:50:20;19.90;99.90
17619;DHT22;8928;51.678;6.074;2023-09-19T15:53:08;19.80;99.90
17619;DHT22;8928;51.678;6.074;2023-09-19T15:55:56;19.70;99.90
17619;DHT22;8928;51.678;6.074;2023-09-19T15:58:44;19.50;99.90
17619;DHT22;8928;51.678;6.074;2023-09-19T16:01:32;19.30;99.90
17619;DHT22;8928;51.678;6.074;2023-09-19T16:04:19;19.20;99.90
17619;DHT22;8928;51.678;6.074;2023-09-19T16:07:06;19.00;99.90
17619;DHT22;8928;51.678;6.074;2023-09-19T16:09:53;18.90;99.90
17619;DHT22;8928;51.678;6.074;2023-09-19T16:12:42;18.90;99.90
17619;DHT22;8928;51.678;6.074;2023-09-19T16:15:29;18.80;99.90
17619;DHT22;8928;51.678;6.074;2023-09-19T16:18:16;18.80;99.90
17619;DHT22;8928;51.678;6.074;2023-09-19T16:21:03;18.70;99.90
17619;DHT22;8928;51.678;6.074;2023-09-19T16:23:51;18.70;99.90
17619;DHT22;8928;51.678;6.074;2023-09-19T16:26:39;18.60;99.90
17619;DHT22;8928;51.678;6.074;2023-09-19T16:29:28;18.50;99.90
17619;DHT22;8928;51.678;6.074;2023-09-19T16:32:15;18.60;99.90
17619;DHT22;8928;51.678;6.074;2023-09-19T16:35:02;18.50;99.90
17619;DHT22;8928;51.678;6.074;2023-09-19T16:37:49;18.50;99.90
17619;DHT22;8928;51.678;6.074;2023-09-19T16:40:36;18.40;99.90
17619;DHT22;8928;51.678;6.074;2023-09-19T16:43:24;18.40;99.90
17619;DHT22;8928;51.678;6.074;2023-09-19T16:46:13;18.40;99.90
17619;DHT22;8928;51.678;6.074;2023-09-19T16:49:02;18.40;99.90
17619;DHT22;8928;51.678;6.074;2023-09-19T16:51:50;18.30;99.90
17619;DHT22;8928;51.678;6.074;2023-09-19T16:54:37;18.30;99.90
17619;DHT22;8928;51.678;6.074;2023-09-19T16:57:24;18.30;99.90
17619;DHT22;8928;51.678;6.074;2023-09-19T17:00:12;18.30;99.90
17619;DHT22;8928;51.678;6.074;2023-09-19T17:03:05;18.30;99.90
17619;DHT22;8928;51.678;6.074;2023-09-19T17:05:56;18.20;99.90
17619;DHT22;8928;51.678;6.074;2023-09-19T17:08:43;18.20;99.90
17619;DHT22;8928;51.678;6.074;2023-09-19T17:11:31;18.20;99.90
17619;DHT22;8928;51.678;6.074;2023-09-19T17:14:19;18.20;99.90
17619;DHT22;8928;51.678;6.074;2023-09-19T17:17:06;18.10;99.90
17619;DHT22;8928;51.678;6.074;2023-09-19T17:19:55;18.10;99.90
17619;DHT22;8928;51.678;6.074;2023-09-19T17:22:42;18.10;99.90
17619;DHT22;8928;51.678;6.074;2023-09-19T17:25:30;18.10;99.90
17619;DHT22;8928;51.678;6.074;2023-09-19T17:28:18;18.00;99.90
17619;DHT22;8928;51.678;6.074;2023-09-19T17:31:09;18.00;99.90
17619;DHT22;8928;51.678;6.074;2023-09-19T17:33:57;18.00;99.90
17619;DHT22;8928;51.678;6.074;2023-09-19T17:36:46;18.00;99.90
17619;DHT22;8928;51.678;6.074;2023-09-19T17:39:33;18.00;99.90
17619;DHT22;8928;51.678;6.074;2023-09-19T17:42:20;18.00;99.90
17619;DHT22;8928;51.678;6.074;2023-09-19T17:45:10;18.00;99.90
17619;DHT22;8928;51.678;6.074;2023-09-19T17:47:57;17.90;99.90
17619;DHT22;8928;51.678;6.074;2023-09-19T17:50:45;17.90;99.90
17619;DHT22;8928;51.678;6.074;2023-09-19T17:53:34;17.90;99.90
17619;DHT22;8928;51.678;6.074;2023-09-19T17:56:21;17.90;99.90
17619;DHT22;8928;51.678;6.074;2023-09-19T17:59:08;17.90;99.90
17619;DHT22;8928;51.678;6.074;2023-09-19T18:01:55;17.90;99.90
17619;DHT22;8928;51.678;6.074;2023-09-19T18:04:42;17.80;99.90